Time;durP1;ratioP1;P1;durP2;ratioP2;P2;SDS_P1;SDS_P2;PMS_P1;PMS_P2;Temp;Humidity;BMP_temperature;BMP_pressure;BME280_temperature;BME280_humidity;BME280_pressure;Samples;Min_cycle;Max_cycle;Signal;HPM_P1;HPM_P2
2022/05/22 00:00:07;;;;;;;;;;;;;;;20.35;63.71;100217.47;7404184;19;1622;-60
2022/05/22 00:02:36;;;;;;;;;;;;;;;20.34;63.70;100221.19;7400918;19;1672;-60
2022/05/22 00:05:04;;;;;;;;;;;;;;;20.34;64.01;100226.56;7403588;19;1852;-60
2022/05/22 00:07:35;;;;;;;;;;;;;;;20.34;63.82;100226.56;7407592;19;1538;-60
2022/05/22 00:10:03;;;;;;;;;;;;;;;20.34;63.72;100229.25;7410139;19;1777;-60
2022/05/22 00:12:32;;;;;;;;;;;;;;;20.34;63.69;100229.25;7409887;19;1534;-64
2022/05/22 00:15:00;;;;;;;;;;;;;;;20.34;63.59;100221.19;7410791;19;1625;-64
2022/05/22 00:17:29;;;;;;;;;;;;;;;20.34;63.79;100235.44;7409612;19;1263;-64
2022/05/22 00:19:57;;;;;;;;;;;;;;;20.36;63.76;100246.03;7410064;19;1530;-60
2022/05/22 00:22:25;;;;;;;;;;;;;;;20.34;63.84;100238.13;7410034;19;1780;-60
2022/05/22 00:24:57;;;;;;;;;;;;;;;20.32;63.79;100231.25;7409350;19;1275;-64
2022/05/22 00:27:26;;;;;;;;;;;;;;;20.34;63.63;100245.34;7407468;19;1852;-60
2022/05/22 00:29:55;;;;;;;;;;;;;;;20.32;63.84;100233.94;7408973;19;1270;-64
2022/05/22 00:32:23;;;;;;;;;;;;;;;20.32;63.66;100224.03;7408648;19;1640;-64
2022/05/22 00:34:51;;;;;;;;;;;;;;;20.35;63.76;100228.22;7410165;19;1530;-64
2022/05/22 00:37:20;;;;;;;;;;;;;;;20.34;63.63;100224.72;7408400;19;1551;-64
2022/05/22 00:39:48;;;;;;;;;;;;;;;20.33;63.81;100230.22;7409514;19;1492;-64
2022/05/22 00:42:20;;;;;;;;;;;;;;;20.35;63.98;100233.59;7409102;19;1324;-64
2022/05/22 00:44:50;;;;;;;;;;;;;;;20.35;63.50;100236.28;7408505;19;1910;-60
2022/05/22 00:47:18;;;;;;;;;;;;;;;20.34;63.78;100238.13;7406885;19;1856;-64
2022/05/22 00:49:47;;;;;;;;;;;;;;;20.33;63.78;100232.91;7407347;19;1555;-64
2022/05/22 00:52:18;;;;;;;;;;;;;;;20.35;63.96;100236.28;7409803;19;975;-60
2022/05/22 00:54:49;;;;;;;;;;;;;;;20.34;63.72;100231.94;7409814;19;1523;-64
2022/05/22 00:57:22;;;;;;;;;;;;;;;20.34;63.73;100245.34;7408975;19;1777;-62
2022/05/22 00:59:52;;;;;;;;;;;;;;;20.34;63.79;100254.25;7408539;19;1693;-60
2022/05/22 01:02:21;;;;;;;;;;;;;;;20.31;63.71;100240.28;7405975;19;1575;-60
2022/05/22 01:04:52;;;;;;;;;;;;;;;20.31;63.81;100237.59;7409082;19;1606;-64
2022/05/22 01:07:20;;;;;;;;;;;;;;;20.35;63.97;100255.94;7406251;19;1850;-60
2022/05/22 01:09:49;;;;;;;;;;;;;;;20.33;63.69;100251.72;7407734;19;1728;-60
2022/05/22 01:12:23;;;;;;;;;;;;;;;20.33;63.67;100246.34;7408111;19;1495;-60
2022/05/22 01:14:53;;;;;;;;;;;;;;;20.33;64.01;100246.34;7407684;19;1499;-64
2022/05/22 01:17:21;;;;;;;;;;;;;;;20.31;63.60;100245.66;7407358;19;1523;-59
2022/05/22 01:19:59;;;;;;;;;;;;;;;20.29;63.75;100245.81;7406825;19;1507;-64
2022/05/22 01:22:30;;;;;;;;;;;;;;;20.33;63.60;100257.91;7408052;19;1693;-65
2022/05/22 01:24:59;;;;;;;;;;;;;;;20.32;64.05;100256.25;7407454;19;1525;-60
2022/05/22 01:27:29;;;;;;;;;;;;;;;20.32;64.02;100255.41;7405851;19;1846;-59
2022/05/22 01:30:05;;;;;;;;;;;;;;;20.34;63.75;100258.78;7407025;19;1617;-65
2022/05/22 01:32:34;;;;;;;;;;;;;;;20.32;63.74;100247.34;7406929;19;1633;-59
2022/05/22 01:35:03;;;;;;;;;;;;;;;20.29;63.82;100247.66;7407657;19;1625;-62
2022/05/22 01:37:34;;;;;;;;;;;;;;;20.34;63.78;100253.41;7407424;19;1613;-60
2022/05/22 01:40:02;;;;;;;;;;;;;;;20.31;63.90;100245.66;7406860;19;1367;-60
2022/05/22 01:42:31;;;;;;;;;;;;;;;20.27;63.49;100245.97;7407544;19;1353;-64
2022/05/22 01:44:59;;;;;;;;;;;;;;;20.29;63.98;100242.28;7406523;19;1278;-60
2022/05/22 01:47:28;;;;;;;;;;;;;;;20.33;63.76;100268.66;7405292;19;1858;-64
2022/05/22 01:49:56;;;;;;;;;;;;;;;20.31;63.74;100267.13;7406095;19;1629;-60
2022/05/22 01:52:24;;;;;;;;;;;;;;;20.27;63.71;100258.53;7407833;19;995;-60
2022/05/22 01:54:55;;;;;;;;;;;;;;;20.34;63.56;100291.00;7407835;19;1402;-60
2022/05/22 01:57:24;;;;;;;;;;;;;;;20.30;63.92;100278.91;7407003;19;1705;-64
2022/05/22 01:59:52;;;;;;;;;;;;;;;20.30;63.69;100265.47;7405898;19;1764;-64
2022/05/22 02:02:20;;;;;;;;;;;;;;;20.29;63.92;100271.81;7395191;19;1456;-60
2022/05/22 02:04:49;;;;;;;;;;;;;;;20.30;63.73;100260.09;7403592;19;1494;-59
2022/05/22 02:10:01;;;;;;;;;;;;;;;20.28;63.85;100273.66;7404962;19;1398;-64
2022/05/22 02:12:30;;;;;;;;;;;;;;;20.30;63.74;100284.25;7404342;19;1523;-65
2022/05/22 02:14:58;;;;;;;;;;;;;;;20.26;63.53;100273.81;7405350;19;1441;-65
2022/05/22 02:17:26;;;;;;;;;;;;;;;20.27;63.63;100270.16;7405110;19;1535;-64
2022/05/22 02:19:57;;;;;;;;;;;;;;;20.30;63.71;100284.25;7406004;19;1406;-65
2022/05/22 02:22:25;;;;;;;;;;;;;;;20.26;63.73;100283.72;7406770;19;1704;-64
2022/05/22 02:24:54;;;;;;;;;;;;;;;20.29;63.75;100290.63;7405479;19;1622;-65
2022/05/22 02:27:26;;;;;;;;;;;;;;;20.24;63.95;100283.88;7404139;19;1842;-64
2022/05/22 02:29:54;;;;;;;;;;;;;;;20.27;63.92;100286.25;7401791;19;1405;-64
2022/05/22 02:32:23;;;;;;;;;;;;;;;20.26;63.99;100287.25;7405780;19;1315;-65
2022/05/22 02:34:51;;;;;;;;;;;;;;;20.24;63.80;100286.56;7405557;19;1324;-65
2022/05/22 02:37:20;;;;;;;;;;;;;;;20.26;63.75;100294.47;7405836;19;1368;-65
2022/05/22 02:39:49;;;;;;;;;;;;;;;20.23;63.73;100294.75;7405040;19;1563;-60
2022/05/22 02:42:18;;;;;;;;;;;;;;;20.27;63.66;100318.47;7405027;19;1487;-65
2022/05/22 02:44:48;;;;;;;;;;;;;;;20.21;63.67;100308.38;7404204;19;1543;-60
2022/05/22 02:47:17;;;;;;;;;;;;;;;20.26;63.85;100313.25;7404339;19;1860;-59
2022/05/22 02:49:46;;;;;;;;;;;;;;;20.21;63.71;100316.41;7402552;19;1462;-59
2022/05/22 02:52:14;;;;;;;;;;;;;;;20.22;64.02;100330.69;7406056;19;1227;-59
2022/05/22 02:54:43;;;;;;;;;;;;;;;20.24;64.08;100323.31;7404646;19;1652;-64
2022/05/22 02:57:11;;;;;;;;;;;;;;;20.24;63.77;100339.41;7404289;19;1405;-64
2022/05/22 02:59:40;;;;;;;;;;;;;;;20.26;63.57;100332.88;7404010;19;1387;-64
2022/05/22 03:02:11;;;;;;;;;;;;;;;20.26;63.49;100330.19;7402613;19;1420;-64
2022/05/22 03:04:39;;;;;;;;;;;;;;;20.24;63.64;100340.25;7404408;19;1410;-64
2022/05/22 03:07:08;;;;;;;;;;;;;;;20.24;63.77;100332.19;7404432;19;1846;-64
2022/05/22 03:09:38;;;;;;;;;;;;;;;20.25;63.61;100341.97;7403411;19;1439;-64
2022/05/22 03:12:08;;;;;;;;;;;;;;;20.26;63.58;100343.63;7404835;19;1630;-64
2022/05/22 03:14:37;;;;;;;;;;;;;;;20.24;63.61;100345.63;7403164;19;1421;-64
2022/05/22 03:17:06;;;;;;;;;;;;;;;20.26;63.80;100326.69;7403898;19;1387;-64
2022/05/22 03:19:37;;;;;;;;;;;;;;;20.24;63.83;100345.63;7404839;19;1419;-64
2022/05/22 03:22:05;;;;;;;;;;;;;;;20.23;63.71;100349.31;7405329;19;1296;-65
2022/05/22 03:24:34;;;;;;;;;;;;;;;20.26;63.77;100359.75;7403028;19;1348;-65
2022/05/22 03:27:03;;;;;;;;;;;;;;;20.25;63.90;100362.56;7403501;19;1879;-64
2022/05/22 03:29:31;;;;;;;;;;;;;;;20.28;64.04;100370.34;7403710;19;1387;-64
2022/05/22 03:32:00;;;;;;;;;;;;;;;20.27;63.47;100376.69;7403069;19;1311;-64
2022/05/22 03:34:28;;;;;;;;;;;;;;;20.29;63.76;100365.78;7403366;19;1689;-65
2022/05/22 03:37:00;;;;;;;;;;;;;;;20.27;63.87;100366.81;7403488;19;1379;-64
2022/05/22 03:39:28;;;;;;;;;;;;;;;20.31;63.88;100366.50;7403821;19;1340;-64
2022/05/22 03:41:58;;;;;;;;;;;;;;;20.30;63.58;100364.81;7405711;19;1309;-64
2022/05/22 03:44:26;;;;;;;;;;;;;;;20.32;63.71;100370.88;7410753;19;1337;-65
2022/05/22 03:46:55;;;;;;;;;;;;;;;20.32;63.60;100350.22;7408210;19;1858;-65
2022/05/22 03:49:24;;;;;;;;;;;;;;;20.36;63.19;100356.13;7410545;19;1325;-65
2022/05/22 03:51:52;;;;;;;;;;;;;;;20.32;63.28;100365.50;7407736;19;1516;-65
2022/05/22 03:54:23;;;;;;;;;;;;;;;20.34;63.41;100371.56;7410514;19;1398;-65
2022/05/22 03:56:52;;;;;;;;;;;;;;;20.36;63.26;100358.81;7410119;19;1730;-65
2022/05/22 03:59:20;;;;;;;;;;;;;;;20.37;63.74;100360.50;7410092;19;1445;-65
2022/05/22 04:01:49;;;;;;;;;;;;;;;20.38;63.38;100367.56;7408339;19;1549;-65
2022/05/22 04:04:17;;;;;;;;;;;;;;;20.38;63.79;100367.56;7407959;19;1334;-64
2022/05/22 04:06:46;;;;;;;;;;;;;;;20.40;63.29;100376.31;7408967;19;1846;-65
2022/05/22 04:09:14;;;;;;;;;;;;;;;20.43;63.45;100378.69;7408976;19;1441;-65
2022/05/22 04:11:45;;;;;;;;;;;;;;;20.41;63.27;100378.84;7409963;19;1355;-66
2022/05/22 04:14:14;;;;;;;;;;;;;;;20.41;63.42;100352.00;7409742;19;1251;-65
2022/05/22 04:16:42;;;;;;;;;;;;;;;20.41;63.50;100375.31;7410377;19;1363;-65
2022/05/22 04:19:11;;;;;;;;;;;;;;;20.42;63.78;100366.25;7409458;19;1402;-65
2022/05/22 04:21:39;;;;;;;;;;;;;;;20.42;63.62;100361.72;7410846;19;1442;-65
2022/05/22 04:27:07;;;;;;;;;;;;;;;20.49;63.44;100353.03;7404972;19;1855;-64
2022/05/22 04:29:36;;;;;;;;;;;;;;;20.47;63.61;100342.44;7408685;19;1551;-65
2022/05/22 04:32:05;;;;;;;;;;;;;;;20.48;63.61;100351.38;7409231;19;1526;-65
2022/05/22 04:34:34;;;;;;;;;;;;;;;20.49;63.45;100367.31;7409301;19;1402;-65
2022/05/22 04:37:03;;;;;;;;;;;;;;;20.53;63.60;100349.91;7410151;19;1070;-65
2022/05/22 04:39:31;;;;;;;;;;;;;;;20.57;63.29;100353.09;7409171;19;1783;-65
2022/05/22 04:42:00;;;;;;;;;;;;;;;20.59;63.70;100352.00;7406369;19;1519;-66
2022/05/22 04:44:31;;;;;;;;;;;;;;;20.66;63.37;100361.13;7408823;19;1555;-66
2022/05/22 04:47:01;;;;;;;;;;;;;;;20.68;63.25;100362.81;7408375;19;1841;-64
2022/05/22 04:49:29;;;;;;;;;;;;;;;20.76;63.05;100370.94;7408920;19;1594;-64
2022/05/22 04:52:00;;;;;;;;;;;;;;;20.66;63.35;100361.13;7410378;19;906;-64
2022/05/22 04:54:28;;;;;;;;;;;;;;;20.68;63.30;100368.19;7408713;19;1717;-64
2022/05/22 04:56:57;;;;;;;;;;;;;;;20.69;63.29;100359.09;7407786;19;1744;-66
2022/05/22 04:59:25;;;;;;;;;;;;;;;20.74;62.98;100367.56;7407460;19;1849;-64
2022/05/22 05:01:56;;;;;;;;;;;;;;;20.79;63.17;100371.47;7407050;19;1585;-64
2022/05/22 05:04:25;;;;;;;;;;;;;;;20.71;63.26;100362.47;7408477;19;1590;-64
2022/05/22 05:06:53;;;;;;;;;;;;;;;20.67;63.32;100364.63;7407424;19;1842;-64
2022/05/22 05:09:22;;;;;;;;;;;;;;;20.68;63.48;100369.03;7407853;19;1730;-64
2022/05/22 05:11:50;;;;;;;;;;;;;;;20.74;63.30;100363.03;7407637;19;1725;-64
2022/05/22 05:14:18;;;;;;;;;;;;;;;20.71;63.40;100357.97;7407116;19;1656;-63
2022/05/22 05:16:47;;;;;;;;;;;;;;;20.78;63.46;100364.38;7408707;19;1634;-64
2022/05/22 05:19:18;;;;;;;;;;;;;;;20.74;63.28;100368.41;7408430;19;1394;-64
2022/05/22 05:21:47;;;;;;;;;;;;;;;20.78;63.12;100358.19;7408031;19;1622;-64
2022/05/22 05:24:15;;;;;;;;;;;;;;;20.79;62.80;100352.66;7406753;19;1616;-64
2022/05/22 05:26:44;;;;;;;;;;;;;;;20.80;62.67;100372.31;7407811;19;1634;-64
2022/05/22 05:29:12;;;;;;;;;;;;;;;20.81;62.61;100371.28;7407269;19;1633;-64
2022/05/22 05:31:40;;;;;;;;;;;;;;;20.78;62.70;100353.66;7408036;19;1275;-63
2022/05/22 05:34:09;;;;;;;;;;;;;;;20.80;62.47;100370.44;7406245;19;1888;-64
2022/05/22 05:36:40;;;;;;;;;;;;;;;20.79;62.48;100365.22;7407987;19;1685;-64
2022/05/22 05:39:10;;;;;;;;;;;;;;;20.74;62.86;100365.72;7406550;19;1753;-64
2022/05/22 05:41:38;;;;;;;;;;;;;;;20.77;62.71;100377.97;7406206;19;1589;-63
2022/05/22 05:44:07;;;;;;;;;;;;;;;20.79;62.68;100387.59;7407105;19;1515;-64
2022/05/22 05:46:36;;;;;;;;;;;;;;;20.77;62.50;100380.66;7406730;19;1292;-64
2022/05/22 05:49:05;;;;;;;;;;;;;;;20.80;62.66;100386.56;7405752;19;1853;-64
2022/05/22 05:51:35;;;;;;;;;;;;;;;20.77;62.68;100373.47;7407782;19;1554;-64
2022/05/22 05:54:07;;;;;;;;;;;;;;;20.81;62.38;100373.97;7405588;19;1744;-64
2022/05/22 05:56:39;;;;;;;;;;;;;;;20.78;62.32;100371.63;7404475;19;1638;-64
2022/05/22 05:59:07;;;;;;;;;;;;;;;20.76;62.54;100370.94;7406989;19;1613;-64
2022/05/22 06:01:36;;;;;;;;;;;;;;;20.80;62.58;100375.00;7405613;19;1653;-64
2022/05/22 06:04:05;;;;;;;;;;;;;;;20.78;62.45;100359.00;7404750;19;1706;-64
2022/05/22 06:06:34;;;;;;;;;;;;;;;20.78;62.36;100360.88;7407162;19;1590;-64
2022/05/22 06:09:03;;;;;;;;;;;;;;;20.73;62.60;100333.63;7404080;19;1830;-62
2022/05/22 06:11:34;;;;;;;;;;;;;;;20.73;62.34;100349.72;7406312;19;1598;-60
2022/05/22 06:14:02;;;;;;;;;;;;;;;20.70;62.52;100350.06;7404829;19;1284;-61
2022/05/22 06:16:31;;;;;;;;;;;;;;;20.71;62.43;100351.72;7406167;19;1622;-60
2022/05/22 06:18:59;;;;;;;;;;;;;;;20.69;62.57;100364.47;7405880;19;1717;-61
2022/05/22 06:21:28;;;;;;;;;;;;;;;20.63;62.37;100339.94;7403722;19;1503;-61
2022/05/22 06:23:56;;;;;;;;;;;;;;;20.66;62.39;100363.78;7405189;19;1288;-60
2022/05/22 06:26:25;;;;;;;;;;;;;;;20.65;62.73;100346.00;7406367;19;1204;-61
2022/05/22 06:28:56;;;;;;;;;;;;;;;20.70;62.46;100356.28;7403905;19;1896;-61
2022/05/22 06:31:24;;;;;;;;;;;;;;;20.74;62.42;100348.75;7405253;19;1613;-61
2022/05/22 06:33:53;;;;;;;;;;;;;;;20.76;62.42;100360.19;7403811;19;1511;-60
2022/05/22 06:36:22;;;;;;;;;;;;;;;20.74;62.59;100324.56;7405781;19;1539;-60
2022/05/22 06:41:31;;;;;;;;;;;;;;;20.75;62.10;100334.28;7405540;19;1044;-60
2022/05/22 06:44:03;;;;;;;;;;;;;;;20.77;62.39;100326.91;7403326;19;1780;-61
2022/05/22 06:46:33;;;;;;;;;;;;;;;20.77;62.35;100332.28;7404526;19;1680;-61
2022/05/22 06:49:02;;;;;;;;;;;;;;;20.78;62.57;100325.94;7402439;19;1852;-60
2022/05/22 06:51:30;;;;;;;;;;;;;;;20.75;62.43;100326.25;7403438;19;1966;-61
2022/05/22 06:53:59;;;;;;;;;;;;;;;20.75;62.54;100323.53;7401504;19;1658;-61
2022/05/22 06:56:27;;;;;;;;;;;;;;;20.80;62.32;100335.50;7404333;19;1577;-60
2022/05/22 06:58:56;;;;;;;;;;;;;;;20.78;62.32;100336.69;7402897;19;1614;-60
2022/05/22 07:01:27;;;;;;;;;;;;;;;20.80;62.19;100329.31;7404467;19;1618;-61
2022/05/22 07:03:55;;;;;;;;;;;;;;;20.79;62.27;100338.34;7404403;19;1551;-60
2022/05/22 07:06:24;;;;;;;;;;;;;;;20.84;62.20;100344.13;7404781;19;1547;-61
2022/05/22 07:08:52;;;;;;;;;;;;;;;20.78;62.29;100328.63;7403128;19;1859;-60
2022/05/22 07:14:02;;;;;;;;;;;;;;;20.77;62.33;100319.72;7404530;19;1582;-61
2022/05/22 07:16:34;;;;;;;;;;;;;;;20.79;62.24;100328.47;7406529;19;1609;-61
2022/05/22 07:19:03;;;;;;;;;;;;;;;20.82;62.30;100321.94;7411583;19;1677;-60
2022/05/22 07:21:31;;;;;;;;;;;;;;;20.80;62.22;100319.38;7411390;19;1618;-60
2022/05/22 07:23:59;;;;;;;;;;;;;;;20.80;62.34;100310.50;7411155;19;1757;-63
2022/05/22 07:26:28;;;;;;;;;;;;;;;20.86;62.29;100317.91;7411139;19;1559;-61
2022/05/22 07:28:58;;;;;;;;;;;;;;;20.89;62.32;100312.25;7408372;19;1848;-61
2022/05/22 07:31:27;;;;;;;;;;;;;;;20.82;62.47;100312.00;7411681;19;1283;-60
2022/05/22 07:34:00;;;;;;;;;;;;;;;20.82;62.44;100316.56;7410801;19;1662;-61
2022/05/22 07:36:29;;;;;;;;;;;;;;;20.82;62.25;100306.63;7411545;19;1511;-60
2022/05/22 07:38:58;;;;;;;;;;;;;;;20.84;62.70;100288.50;7410902;19;1662;-60
2022/05/22 07:41:26;;;;;;;;;;;;;;;20.85;62.43;100289.38;7410620;19;1295;-60
2022/05/22 07:43:54;;;;;;;;;;;;;;;20.86;62.46;100280.28;7407390;19;1476;-61
2022/05/22 07:46:23;;;;;;;;;;;;;;;20.87;62.42;100273.94;7411551;19;1629;-61
2022/05/22 07:48:51;;;;;;;;;;;;;;;20.84;62.27;100266.19;7408910;19;1838;-61
2022/05/22 07:51:22;;;;;;;;;;;;;;;20.86;62.53;100272.22;7410067;19;1388;-64
2022/05/22 07:53:52;;;;;;;;;;;;;;;20.83;62.31;100261.78;7409909;19;1571;-64
2022/05/22 07:56:23;;;;;;;;;;;;;;;20.85;62.62;100268.72;7408161;19;1546;-64
2022/05/22 07:58:52;;;;;;;;;;;;;;;20.84;62.33;100250.88;7408958;19;1446;-63
2022/05/22 08:01:21;;;;;;;;;;;;;;;20.85;62.70;100255.28;7408698;19;1574;-64
2022/05/22 08:03:49;;;;;;;;;;;;;;;20.86;62.36;100240.81;7408287;19;1547;-64
2022/05/22 08:06:18;;;;;;;;;;;;;;;20.83;62.41;100240.28;7410016;19;1606;-64
2022/05/22 08:08:49;;;;;;;;;;;;;;;20.83;62.31;100246.53;7408984;19;1864;-64
2022/05/22 08:11:17;;;;;;;;;;;;;;;20.83;62.20;100238.47;7410233;19;1539;-63
2022/05/22 08:13:45;;;;;;;;;;;;;;;20.86;62.29;100235.44;7409368;19;1610;-63
2022/05/22 08:16:14;;;;;;;;;;;;;;;20.82;62.40;100238.63;7411448;19;1504;-64
2022/05/22 08:18:42;;;;;;;;;;;;;;;20.85;62.39;100220.34;7409317;19;1499;-63
2022/05/22 08:21:11;;;;;;;;;;;;;;;20.83;62.31;100237.59;7408278;19;1800;-64
2022/05/22 08:23:39;;;;;;;;;;;;;;;20.84;62.13;100228.56;7410168;19;1630;-64
2022/05/22 08:26:10;;;;;;;;;;;;;;;20.86;62.48;100226.53;7409447;19;1429;-64
2022/05/22 08:28:39;;;;;;;;;;;;;;;20.83;62.44;100218.78;7406614;19;1845;-63
2022/05/22 08:31:08;;;;;;;;;;;;;;;20.83;62.36;100200.84;7410352;19;1546;-63
2022/05/22 08:33:37;;;;;;;;;;;;;;;20.87;62.35;100206.75;7410355;19;1515;-64
2022/05/22 08:36:06;;;;;;;;;;;;;;;20.84;62.27;100217.81;7409893;19;1587;-63
2022/05/22 08:38:34;;;;;;;;;;;;;;;20.85;62.68;100192.63;7409460;19;1555;-63
2022/05/22 08:41:13;;;;;;;;;;;;;;;20.84;62.45;100202.50;7409987;19;1542;-63
2022/05/22 08:43:49;;;;;;;;;;;;;;;20.85;62.54;100195.31;7409680;19;1362;-64
2022/05/22 08:46:28;;;;;;;;;;;;;;;20.85;62.44;100187.25;7408621;19;1599;-63
2022/05/22 08:48:58;;;;;;;;;;;;;;;20.86;62.29;100195.13;7407265;19;1853;-64
2022/05/22 08:51:32;;;;;;;;;;;;;;;20.85;62.28;100181.88;7409547;19;1605;-64
2022/05/22 08:54:08;;;;;;;;;;;;;;;20.84;62.64;100189.06;7408723;19;1543;-63
2022/05/22 08:59:23;;;;;;;;;;;;;;;20.85;62.56;100165.75;7409245;19;1622;-64
2022/05/22 09:01:54;;;;;;;;;;;;;;;20.85;62.49;100176.50;7407079;19;1680;-64
2022/05/22 09:04:34;;;;;;;;;;;;;;;20.86;62.35;100172.78;7408815;19;1626;-63
2022/05/22 09:07:06;;;;;;;;;;;;;;;20.83;62.25;100163.22;7409595;19;1634;-62
2022/05/22 09:09:37;;;;;;;;;;;;;;;20.84;62.48;100156.00;7407555;19;1845;-63
2022/05/22 09:12:18;;;;;;;;;;;;;;;20.84;62.46;100147.94;7406632;19;1816;-63
2022/05/22 09:14:53;;;;;;;;;;;;;;;20.78;62.89;100144.03;7408478;19;1566;-64
2022/05/22 09:17:25;;;;;;;;;;;;;;;20.81;62.74;100132.13;7407079;19;1354;-63
2022/05/22 09:19:56;;;;;;;;;;;;;;;20.82;62.83;100128.44;7407191;19;1359;-64
2022/05/22 09:22:28;;;;;;;;;;;;;;;20.82;62.65;100139.19;7409174;19;995;-64
2022/05/22 09:25:04;;;;;;;;;;;;;;;20.83;62.59;100140.84;7406526;19;1618;-64
2022/05/22 09:27:39;;;;;;;;;;;;;;;20.81;62.86;100122.22;7407198;19;1563;-63
2022/05/22 09:30:14;;;;;;;;;;;;;;;20.82;62.77;100118.53;7405598;19;1841;-64
2022/05/22 09:32:50;;;;;;;;;;;;;;;20.84;62.67;100131.81;7407683;19;1508;-63
2022/05/22 09:35:25;;;;;;;;;;;;;;;20.83;62.86;100122.03;7408481;19;1208;-63
2022/05/22 09:38:03;;;;;;;;;;;;;;;20.79;62.80;100115.31;7406552;19;1666;-63
2022/05/22 09:40:34;;;;;;;;;;;;;;;20.81;62.86;100126.75;7405589;19;1547;-63
2022/05/22 09:43:13;;;;;;;;;;;;;;;20.81;62.55;100105.25;7407435;19;1535;-64
2022/05/22 09:45:52;;;;;;;;;;;;;;;20.81;62.81;100094.50;7408182;19;1354;-63
2022/05/22 09:48:38;;;;;;;;;;;;;;;20.79;62.66;100105.44;7406807;19;1849;-64
2022/05/22 09:51:10;;;;;;;;;;;;;;;20.78;62.67;100090.31;7407285;19;1612;-64
2022/05/22 09:53:55;;;;;;;;;;;;;;;20.78;62.95;100092.16;7406945;19;1434;-64
2022/05/22 09:56:30;;;;;;;;;;;;;;;20.82;62.53;100069.31;7406792;19;1519;-64
2022/05/22 09:59:12;;;;;;;;;;;;;;;20.82;62.91;100059.41;7406672;19;1523;-64
2022/05/22 10:01:45;;;;;;;;;;;;;;;20.80;62.42;100063.28;7405755;19;1402;-63
2022/05/22 10:04:22;;;;;;;;;;;;;;;20.83;62.66;100087.97;7406978;19;1530;-64
2022/05/22 10:06:57;;;;;;;;;;;;;;;20.81;62.89;100055.06;7407603;19;1015;-63
2022/05/22 10:09:31;;;;;;;;;;;;;;;20.80;62.59;100064.09;7405879;19;1866;-64
2022/05/22 10:12:06;;;;;;;;;;;;;;;20.81;62.53;100052.38;7406800;19;1610;-64
2022/05/22 10:14:43;;;;;;;;;;;;;;;20.84;62.45;100072.69;7405566;19;1765;-63
2022/05/22 10:17:23;;;;;;;;;;;;;;;20.82;62.52;100063.94;7405405;19;1503;-63
2022/05/22 10:19:55;;;;;;;;;;;;;;;20.81;62.60;100056.88;7405611;19;1645;-64
2022/05/22 10:22:29;;;;;;;;;;;;;;;20.80;62.70;100049.84;7406124;19;1601;-64
2022/05/22 10:25:03;;;;;;;;;;;;;;;20.81;62.48;100051.50;7404996;19;1654;-63
2022/05/22 10:27:40;;;;;;;;;;;;;;;20.80;62.77;100052.53;7406177;19;1290;-64
2022/05/22 10:30:12;;;;;;;;;;;;;;;20.84;62.50;100065.47;7405214;19;1853;-64
2022/05/22 10:32:51;;;;;;;;;;;;;;;20.80;62.95;100041.78;7406100;19;1571;-63
2022/05/22 10:35:23;;;;;;;;;;;;;;;20.78;62.69;100047.31;7404914;19;1430;-64
2022/05/22 10:37:53;;;;;;;;;;;;;;;20.78;62.89;100041.94;7405825;19;1544;-64
2022/05/22 10:40:23;;;;;;;;;;;;;;;20.79;62.89;100030.19;7405987;19;1618;-64
2022/05/22 10:42:51;;;;;;;;;;;;;;;20.77;62.71;100044.78;7404505;19;1783;-63
2022/05/22 10:45:24;;;;;;;;;;;;;;;20.80;62.52;100044.47;7406451;19;1617;-63
2022/05/22 10:47:56;;;;;;;;;;;;;;;20.77;62.71;100021.47;7404218;19;1669;-64
2022/05/22 10:50:26;;;;;;;;;;;;;;;20.80;62.75;100025.66;7403343;19;1873;-63
2022/05/22 10:52:55;;;;;;;;;;;;;;;20.76;62.75;100032.38;7405901;19;1527;-64
2022/05/22 10:55:33;;;;;;;;;;;;;;;20.78;62.60;100035.72;7404945;19;1801;-63
2022/05/22 10:58:02;;;;;;;;;;;;;;;20.77;62.70;100023.28;7405153;19;1669;-63
2022/05/22 11:00:32;;;;;;;;;;;;;;;20.76;62.59;100014.38;7404669;19;1430;-63
2022/05/22 11:03:15;;;;;;;;;;;;;;;20.79;62.61;100030.19;7402604;19;1618;-64
2022/05/22 11:05:51;;;;;;;;;;;;;;;20.80;62.68;100022.97;7405294;19;1693;-63
2022/05/22 11:08:28;;;;;;;;;;;;;;;20.81;62.58;100005.81;7403796;19;1685;-64
2022/05/22 11:10:57;;;;;;;;;;;;;;;20.84;62.75;100006.34;7403238;19;1841;-64
2022/05/22 11:13:26;;;;;;;;;;;;;;;20.81;62.51;100019.25;7404348;19;1539;-63
2022/05/22 11:15:55;;;;;;;;;;;;;;;20.83;62.42;100023.47;7404819;19;1534;-64
2022/05/22 11:18:26;;;;;;;;;;;;;;;20.82;62.43;100032.53;7404491;19;1760;-64
2022/05/22 11:20:58;;;;;;;;;;;;;;;20.82;62.43;100020.97;7404345;19;1568;-64
2022/05/22 11:23:47;;;;;;;;;;;;;;;20.81;62.36;100004.00;7403825;19;1540;-64
2022/05/22 11:26:25;;;;;;;;;;;;;;;20.81;62.22;100013.88;7403594;19;1744;-64
2022/05/22 11:29:04;;;;;;;;;;;;;;;20.83;62.24;100014.56;7403646;19;1816;-64
2022/05/22 11:31:41;;;;;;;;;;;;;;;20.82;62.60;99992.22;7404004;19;1684;-63
2022/05/22 11:34:23;;;;;;;;;;;;;;;20.81;62.57;100005.81;7404371;19;1756;-64
2022/05/22 11:36:58;;;;;;;;;;;;;;;20.82;62.17;99996.78;7404343;19;1749;-63
2022/05/22 11:39:36;;;;;;;;;;;;;;;20.82;62.15;99994.09;7403888;19;1755;-64
2022/05/22 11:42:11;;;;;;;;;;;;;;;20.80;62.19;99990.72;7403347;19;1749;-64
2022/05/22 11:45:00;;;;;;;;;;;;;;;20.81;62.23;99987.00;7402851;19;1547;-63
2022/05/22 11:47:36;;;;;;;;;;;;;;;20.81;62.16;99993.25;7404091;19;1527;-64
2022/05/22 11:50:12;;;;;;;;;;;;;;;20.79;62.46;99983.66;7401840;19;1865;-64
2022/05/22 11:52:57;;;;;;;;;;;;;;;20.80;62.60;99993.41;7403936;19;1495;-64
2022/05/22 11:55:32;;;;;;;;;;;;;;;20.82;62.32;99975.28;7404300;19;1626;-63
2022/05/22 11:58:10;;;;;;;;;;;;;;;20.80;62.27;99966.53;7403346;19;1760;-63
2022/05/22 12:00:41;;;;;;;;;;;;;;;20.82;62.12;99959.16;7402694;19;1709;-63
2022/05/22 12:03:18;;;;;;;;;;;;;;;20.82;62.23;99977.97;7403633;19;1709;-64
2022/05/22 12:05:55;;;;;;;;;;;;;;;20.81;62.37;99970.88;7411149;19;1490;-64
2022/05/22 12:08:28;;;;;;;;;;;;;;;20.86;62.00;99968.56;7410303;19;1642;-64
2022/05/22 12:11:00;;;;;;;;;;;;;;;20.82;62.30;99964.53;7408312;19;2004;-64
2022/05/22 12:13:31;;;;;;;;;;;;;;;20.84;62.36;99957.13;7409930;19;1531;-64
2022/05/22 12:16:02;;;;;;;;;;;;;;;20.50;62.13;99906.22;7407467;19;1563;-64
2022/05/22 12:18:47;;;;;;;;;;;;;;;20.82;62.50;99948.41;7408583;19;1531;-61
2022/05/22 12:21:21;;;;;;;;;;;;;;;20.82;62.33;99945.72;7410095;19;1609;-60
2022/05/22 12:23:53;;;;;;;;;;;;;;;20.84;62.15;99951.75;7410188;19;1562;-60
2022/05/22 12:26:23;;;;;;;;;;;;;;;20.87;62.47;99954.13;7408898;19;1321;-63
2022/05/22 12:28:53;;;;;;;;;;;;;;;20.84;62.18;99959.81;7409065;19;1732;-60
2022/05/22 12:31:23;;;;;;;;;;;;;;;20.83;62.42;99958.13;7407349;19;1850;-60
2022/05/22 12:33:52;;;;;;;;;;;;;;;20.83;62.39;99950.06;7408708;19;1515;-61
2022/05/22 12:36:25;;;;;;;;;;;;;;;20.83;62.13;99948.25;7409829;19;1606;-60
2022/05/22 12:38:58;;;;;;;;;;;;;;;20.83;62.42;99966.19;7408212;19;1546;-60
2022/05/22 12:41:38;;;;;;;;;;;;;;;20.82;62.23;99946.53;7409389;19;1586;-63
2022/05/22 12:44:07;;;;;;;;;;;;;;;20.83;62.30;99942.00;7409547;19;1438;-63
2022/05/22 12:46:36;;;;;;;;;;;;;;;20.84;62.08;99939.16;7408184;19;1199;-61
2022/05/22 12:49:07;;;;;;;;;;;;;;;20.86;62.05;99941.69;7406520;19;1370;-60
2022/05/22 12:51:40;;;;;;;;;;;;;;;20.84;62.21;99928.41;7409531;19;1058;-64
2022/05/22 12:54:12;;;;;;;;;;;;;;;20.81;62.23;99934.13;7408705;19;1414;-60
2022/05/22 12:56:42;;;;;;;;;;;;;;;20.81;62.36;99934.13;7403448;19;1340;-63
2022/05/22 12:59:22;;;;;;;;;;;;;;;20.80;62.25;99934.28;7407610;19;1437;-60
2022/05/22 13:01:51;;;;;;;;;;;;;;;20.80;62.06;99926.22;7404942;19;1530;-64
2022/05/22 13:04:25;;;;;;;;;;;;;;;20.84;62.48;99932.94;7407921;19;1716;-63
2022/05/22 13:06:59;;;;;;;;;;;;;;;20.82;62.41;99925.06;7408965;19;1435;-60
2022/05/22 13:09:36;;;;;;;;;;;;;;;20.84;62.30;99927.56;7407788;19;1849;-61
2022/05/22 13:12:06;;;;;;;;;;;;;;;20.82;62.22;99934.97;7407389;19;1636;-60
2022/05/22 13:14:40;;;;;;;;;;;;;;;20.83;62.25;99926.75;7407647;19;1200;-64
2022/05/22 13:17:09;;;;;;;;;;;;;;;20.83;62.08;99925.88;7404986;19;1457;-63
2022/05/22 13:19:48;;;;;;;;;;;;;;;20.83;62.23;99924.06;7406308;19;1334;-64